Map

Track Data

SID SEASON NUMBER BASIN SUBBASIN NAME ISO_TIME NATURE LAT LON WMO_WIND WMO_PRES WMO_AGENCY TRACK_TYPE DIST2LAND LANDFALL IFLAG USA_AGENCY USA_ATCF_ID USA_LAT USA_LON USA_RECORD USA_STATUS USA_WIND USA_PRES USA_SSHS USA_R34_NE USA_R34_SE USA_R34_SW USA_R34_NW USA_R50_NE USA_R50_SE USA_R50_SW USA_R50_NW USA_R64_NE USA_R64_SE USA_R64_SW USA_R64_NW USA_POCI USA_ROCI USA_RMW USA_EYE TOKYO_LAT TOKYO_LON TOKYO_GRADE TOKYO_WIND TOKYO_PRES TOKYO_R50_DIR TOKYO_R50_LONG TOKYO_R50_SHORT TOKYO_R30_DIR TOKYO_R30_LONG TOKYO_R30_SHORT TOKYO_LAND CMA_LAT CMA_LON CMA_CAT CMA_WIND CMA_PRES HKO_LAT HKO_LON HKO_CAT HKO_WIND HKO_PRES NEWDELHI_LAT NEWDELHI_LON NEWDELHI_GRADE NEWDELHI_WIND NEWDELHI_PRES NEWDELHI_CI NEWDELHI_DP NEWDELHI_POCI REUNION_LAT REUNION_LON REUNION_TYPE REUNION_WIND REUNION_PRES REUNION_TNUM REUNION_CI REUNION_RMW REUNION_R34_NE REUNION_R34_SE REUNION_R34_SW REUNION_R34_NW REUNION_R50_NE REUNION_R50_SE REUNION_R50_SW REUNION_R50_NW REUNION_R64_NE REUNION_R64_SE REUNION_R64_SW REUNION_R64_NW BOM_LAT BOM_LON BOM_TYPE BOM_WIND BOM_PRES BOM_TNUM BOM_CI BOM_RMW BOM_R34_NE BOM_R34_SE BOM_R34_SW BOM_R34_NW BOM_R50_NE BOM_R50_SE BOM_R50_SW BOM_R50_NW BOM_R64_NE BOM_R64_SE BOM_R64_SW BOM_R64_NW BOM_ROCI BOM_POCI BOM_EYE BOM_POS_METHOD BOM_PRES_METHOD NADI_LAT NADI_LON NADI_CAT NADI_WIND NADI_PRES WELLINGTON_LAT WELLINGTON_LON WELLINGTON_WIND WELLINGTON_PRES DS824_LAT DS824_LON DS824_STAGE DS824_WIND DS824_PRES TD9636_LAT TD9636_LON TD9636_STAGE TD9636_WIND TD9636_PRES TD9635_LAT TD9635_LON TD9635_WIND TD9635_PRES TD9635_ROCI NEUMANN_LAT NEUMANN_LON NEUMANN_CLASS NEUMANN_WIND NEUMANN_PRES MLC_LAT MLC_LON MLC_CLASS MLC_WIND MLC_PRES USA_GUST BOM_GUST BOM_GUST_PER REUNION_GUST REUNION_GUST_PER USA_SEAHGT USA_SEARAD_NE USA_SEARAD_SE USA_SEARAD_SW USA_SEARAD_NW STORM_SPEED STORM_DIR
1989056S23039 1989 19 SI MM IANA 1989-02-25 06:00:00 NR -22.5000 39.4000 main 391 349 __________O___ -1 -22.5000 39.4000 1 30 9 60
1989056S23039 1989 19 SI MM IANA 1989-02-25 09:00:00 NR -22.2687 39.8308 main 349 329 __________P___ -1 -22.2687 39.8308 1 30 7 54
1989056S23039 1989 19 SI MM IANA 1989-02-25 12:00:00 TS -22.1096 39.9892 28 997 reunion main 329 309 _____O____P_O_ -1 -22.2000 39.6000 2 28 997 2.50000 2.50000 -22.0494 40.2486 1 30 -22.2000 39.6000 TC 35 997 5 56
1989056S23039 1989 19 SI MM IANA 1989-02-25 15:00:00 TS -21.9992 40.2574 main 299 289 _____P____P_P_ -1 -22.1431 39.8727 2 28 997 -21.8554 40.6421 1 30 -22.1431 39.8727 TC 35 997 4 66
1989056S23039 1989 19 SI MM IANA 1989-02-25 18:00:00 TS -21.9400 40.4000 28 997 reunion main 290 290 _____O____O_O_ -1 -22.1000 40.0000 2 28 997 2.50000 2.50000 -21.7000 41.0000 1 30 -22.1000 40.0000 TC 35 997 2 59
1989056S23039 1989 19 SI MM IANA 1989-02-25 21:00:00 TS -21.9123 40.4118 main 290 259 _____P____P_P_ -1 -22.0711 39.9570 2 28 997 -21.5947 41.3214 1 31 -22.0711 39.9570 TC 35 997 3 70
1989056S23039 1989 19 SI MM IANA 1989-02-26 00:00:00 TS -21.8475 40.6819 28 997 reunion main 261 183 _____O____P_O_ -1 -22.0000 40.2000 2 28 997 2.50000 2.50000 -21.5425 41.6456 1 32 -22.0000 40.2000 TC 35 997 11 79
1989056S23039 1989 19 SI MM IANA 1989-02-26 03:00:00 TS -21.7070 41.5500 main 174 93 _____P____P_P_ -1 -21.7884 41.3140 2 32 994 -21.5442 42.0219 1 33 -21.7884 41.3140 TC 40 994 17 82
1989056S23039 1989 19 SI MM IANA 1989-02-26 06:00:00 TS -21.6000 42.5000 36 991 reunion main 93 46 _____O____O_O_ -1 -21.6000 42.5000 3 36 991 3.00000 3.00000 -21.6000 42.5000 2 35 -21.6000 42.5000 TC 45 991 14 86
1989056S23039 1989 19 SI MM IANA 1989-02-26 09:00:00 TS -21.6228 43.0039 main 46 10 _____P____P_P_ -1 -21.5957 42.9246 3 40 987 -21.6769 43.1624 2 35 -21.5957 42.9246 TC 50 987 9 99
1989056S23039 1989 19 SI MM IANA 1989-02-26 12:00:00 TS -21.7349 43.4417 44 984 reunion main 10 0 _____O____P_O_ -1 -21.7000 43.2000 3 44 984 3.50000 3.50000 -21.8047 43.9251 2 35 -21.7000 43.2000 TC 55 984 10 103
1989056S23039 1989 19 SI MM IANA 1989-02-26 15:00:00 TS -21.8578 44.0674 main 0 0 _____P____P_P_ -1 -21.7967 43.7385 3 40 -21.9799 44.7253 2 35 -21.7967 43.7385 TC 47 13 104
1989056S23039 1989 19 SI MM IANA 1989-02-26 18:00:00 TS -22.0667 44.8333 36 reunion main 0 0 _____O____O_O_ -1 -22.0000 44.5000 6 36 9.90000 -22.2000 45.5000 2 35 -22.0000 44.5000 TC 40 17 109
1989056S23039 1989 19 SI MM IANA 1989-02-26 21:00:00 TS -22.4017 45.7822 main 0 0 _____P____P_P_ -1 -22.3791 45.5986 6 36 -22.4470 46.1493 2 35 -22.3791 45.5986 TC 37 19 112
1989056S23039 1989 19 SI MM IANA 1989-02-27 00:00:00 TS -22.7792 46.7220 36 reunion main 0 0 _____O____P_O_ -1 -22.8000 46.7000 6 36 9.90000 -22.7376 46.7660 2 35 -22.8000 46.7000 TC 35 17 115
1989056S23039 1989 19 SI MM IANA 1989-02-27 03:00:00 TS -23.0958 47.4188 main 0 0 _____P____P_P_ -1 -23.1139 47.4408 6 36 -23.0595 47.3747 2 35 -23.1139 47.4408 TC 40 13 118
1989056S23039 1989 19 SI MM IANA 1989-02-27 06:00:00 TS -23.4000 48.0000 36 991 reunion main 30 30 _____O____O_O_ -1 -23.4000 48.0000 3 36 991 3.00000 3.00000 -23.4000 48.0000 2 35 -23.4000 48.0000 TC 45 991 12 120
1989056S23039 1989 19 SI MM IANA 1989-02-27 09:00:00 TS -23.7159 48.5867 main 97 97 _____P____P_P_ -1 -23.6996 48.5229 3 36 991 -23.7484 48.7143 2 35 -23.6996 48.5229 TC 45 991 12 121
1989056S23039 1989 19 SI MM IANA 1989-02-27 12:00:00 ET -24.0361 49.1480 36 991 reunion main 157 157 _____O____P_O_ -1 -24.0000 49.0000 5 36 991 3.00000 3.00000 -24.1084 49.4439 2 35 -24.0000 49.0000 EX 45 991 12 122
1989056S23039 1989 19 SI MM IANA 1989-02-27 15:00:00 ET -24.3543 49.6926 main 227 227 _____P____P_P_ -1 -24.2994 49.4630 5 36 991 -24.4641 50.1518 2 35 -24.2994 49.4630 EX 45 991 12 122
1989056S23039 1989 19 SI MM IANA 1989-02-27 18:00:00 ET -24.6667 50.2667 36 991 reunion main 294 294 _____O____O_O_ -1 -24.6000 50.0000 5 36 991 3.00000 3.00000 -24.8000 50.8000 2 35 -24.6000 50.0000 EX 45 991 13 118
1989056S23039 1989 19 SI MM IANA 1989-02-27 21:00:00 ET -24.9415 50.9274 main 358 358 _____P____P_P_ -1 -24.8853 50.7278 5 32 994 -25.0539 51.3268 2 33 -24.8853 50.7278 EX 40 994 13 115
1989056S23039 1989 19 SI MM IANA 1989-02-28 00:00:00 ET -25.2316 51.5975 28 997 reunion main 435 435 _____O____P_O_ -1 -25.2000 51.5000 5 28 997 2.50000 2.50000 -25.2948 51.7924 2 32 -25.2000 51.5000 EX 35 997 13 119
1989056S23039 1989 19 SI MM IANA 1989-02-28 03:00:00 ET -25.5777 52.2039 main 506 506 _____P____P_P_ -1 -25.5848 52.1876 5 28 997 -25.5634 52.2365 2 31 -25.5848 52.1876 EX 35 997 13 125
1989056S23039 1989 19 SI MM IANA 1989-02-28 06:00:00 ET -25.9667 52.7667 28 997 reunion main 577 577 _____O____O_O_ -1 -26.0000 52.8000 5 28 997 2.50000 2.50000 -25.9000 52.7000 1 30 -26.0000 52.8000 EX 35 997 13 128
1989056S23039 1989 19 SI MM IANA 1989-02-28 09:00:00 ET -26.4022 53.3776 main 601 601 _____P____P_P_ -1 -26.3694 53.3087 5 26 998 -26.4677 53.5156 1 30 -26.3694 53.3087 EX 32 998 14 131
1989056S23039 1989 19 SI MM IANA 1989-02-28 12:00:00 ET -26.8947 53.9738 24 1000 reunion main 635 635 _____O____P_O_ -1 -26.8000 53.8000 5 24 1000 2.00000 2.00000 -27.0841 54.3215 1 30 -26.8000 53.8000 EX 30 1000 15 133
1989056S23039 1989 19 SI MM IANA 1989-02-28 15:00:00 ET -27.4178 54.5795 main 678 678 _____P____P_P_ -1 -27.3104 54.4226 5 24 1000 -27.6328 54.8932 1 30 -27.3104 54.4226 EX 30 1000 14 141
1989056S23039 1989 19 SI MM IANA 1989-02-28 18:00:00 ET -28.0000 55.0000 24 1000 reunion main 739 739 _____O____O_O_ -1 -28.0000 55.0000 5 24 1000 2.00000 2.00000 -28.0000 55.0000 1 30 -28.0000 55.0000 EX 30 1000 13 158
1989056S23039 1989 19 SI MM IANA 1989-02-28 21:00:00 ET -28.6405 55.1283 main 806 806 _____P____P_P_ -1 -28.9099 55.4538 5 24 1000 -28.1017 54.4773 1 28 -28.9099 55.4538 EX 30 1000 13 182
1989056S23039 1989 19 SI MM IANA 1989-03-01 00:00:00 ET -29.3248 54.9444 24 1000 reunion main 885 885 _____O____P_O_ -1 -30.0000 55.7000 5 24 1000 2.00000 2.00000 -27.9743 53.4331 1 27 -30.0000 55.7000 EX 30 1000 15 203
1989056S23039 1989 19 SI MM IANA 1989-03-01 03:00:00 ET -30.0146 54.4690 main 917 914 _____P____P_P_ -1 -31.1800 55.6798 5 24 1000 -27.6837 52.0474 1 26 -31.1800 55.6798 EX 30 1000 17 215
1989056S23039 1989 19 SI MM IANA 1989-03-01 06:00:00 MX -30.7000 53.8333 24 1000 reunion main 914 _____O____O_O_ -1 -32.4000 55.5000 6 24 1000 3.60000 3.60000 -27.3000 50.5000 1 25 -32.4000 55.5000 EX 30 1000 18 219

About IBTrACS Database

This database is a web-friendly format of International Best Track Archive for Climate Stewardship (IBTrACS), a global best track data archive curated by NOAA dating back to 1842.

Updated: 2021-10-25